Terminal Aerodrome Forecast
Issued by NWS Wakefield, VA

Home | Current Version | Previous Version | Text Only | Print | Product List | Glossary On
Versions: 1 2 3 4 5 6 7 8 9 10 11 12 13 14 15 16 17
000
FTUS41 KAKQ 020530
TAFRIC
TAF
KRIC 020530Z 0206/0306 20006KT P6SM SKC
     FM021200 20008KT P6SM SCT250
     FM021500 20015G24KT P6SM BKN250
     FM030200 19014G22KT P6SM BKN120=

USA.gov is the U.S. government's official web portal to all federal, state and local government web resources and services.